createdAt,value
2022-12-12T00:01:04.333Z,0.30
2022-12-12T00:02:07.427Z,0.39
2022-12-12T00:03:11.989Z,0.27
2022-12-12T00:04:14.549Z,0.25
2022-12-12T00:05:21.659Z,0.18
2022-12-12T00:06:25.246Z,0.22
2022-12-12T00:07:27.511Z,0.09
2022-12-12T00:08:31.275Z,0.17
2022-12-12T00:09:33.700Z,0.24
2022-12-12T00:10:36.667Z,0.27
2022-12-12T00:11:39.186Z,0.26
2022-12-12T00:12:42.467Z,0.26
2022-12-12T00:13:45.077Z,0.32
2022-12-12T00:14:47.410Z,0.28
2022-12-12T00:15:50.027Z,0.32
2022-12-12T00:16:52.425Z,0.27
2022-12-12T00:17:54.890Z,0.21
2022-12-12T00:18:57.437Z,0.08
2022-12-12T00:20:00.116Z,0.11
2022-12-12T00:21:04.246Z,0.15
2022-12-12T00:22:06.587Z,0.14
2022-12-12T00:23:09.086Z,0.21
2022-12-12T00:24:11.441Z,0.30
2022-12-12T00:25:14.008Z,0.32
2022-12-12T00:26:22.998Z,0.20
2022-12-12T00:27:26.023Z,0.26
2022-12-12T00:28:29.345Z,0.33
2022-12-12T00:29:31.969Z,0.28
2022-12-12T00:30:34.509Z,0.34
2022-12-12T00:31:37.238Z,0.29
2022-12-12T00:32:39.505Z,0.28
2022-12-12T00:33:42.100Z,0.28
2022-12-12T00:34:44.408Z,0.29
2022-12-12T00:35:52.396Z,0.22
2022-12-12T00:36:54.710Z,0.18
2022-12-12T00:37:57.177Z,0.22
2022-12-12T00:39:00.432Z,0.26
2022-12-12T00:40:06.045Z,0.26
2022-12-12T00:41:09.220Z,0.29
2022-12-12T00:42:11.613Z,0.22
2022-12-12T00:43:14.444Z,0.12
2022-12-12T00:44:17.202Z,0.12
2022-12-12T00:45:19.499Z,0.04
2022-12-12T00:46:26.762Z,0.14
2022-12-12T00:52:02.719Z,0.21
2022-12-12T00:53:05.023Z,0.20
2022-12-12T00:54:09.628Z,0.17
2022-12-12T00:55:13.321Z,0.17
2022-12-12T00:56:22.463Z,0.26
2022-12-12T00:57:24.769Z,0.11
2022-12-12T00:58:27.831Z,0.12
2022-12-12T00:59:30.210Z,0.13
2022-12-12T01:00:33.628Z,0.26
2022-12-12T01:01:36.347Z,0.27
2022-12-12T01:02:40.766Z,0.20
2022-12-12T01:03:43.664Z,0.18
2022-12-12T01:04:46.103Z,0.20
2022-12-12T01:05:49.316Z,0.15
2022-12-12T01:06:51.790Z,0.23
2022-12-12T01:07:54.686Z,0.22
2022-12-12T01:08:57.318Z,0.05
2022-12-12T01:10:00.020Z,0.22
2022-12-12T01:11:02.474Z,0.20
2022-12-12T01:12:04.825Z,0.22
2022-12-12T01:13:07.263Z,0.22
2022-12-12T01:14:09.604Z,0.21
2022-12-12T01:15:12.731Z,0.20
2022-12-12T01:16:15.538Z,0.12
2022-12-12T01:17:18.429Z,0.09
2022-12-12T01:18:21.911Z,0.10
2022-12-12T01:19:24.490Z,0.11
2022-12-12T01:20:28.023Z,0.14
2022-12-12T01:21:30.387Z,0.12
2022-12-12T01:22:33.028Z,0.14
2022-12-12T01:23:35.522Z,0.24
2022-12-12T01:24:38.141Z,0.18
2022-12-12T01:25:40.768Z,0.19
2022-12-12T01:26:43.311Z,0.22
2022-12-12T01:27:46.195Z,0.18
2022-12-12T01:28:48.764Z,0.13
2022-12-12T01:29:51.773Z,0.14
2022-12-12T01:30:56.867Z,0.14
2022-12-12T01:31:59.516Z,0.14
2022-12-12T01:33:02.023Z,0.10
2022-12-12T01:34:04.445Z,0.12
2022-12-12T01:35:08.637Z,0.08
2022-12-12T01:36:16.804Z,-0.01
2022-12-12T01:37:19.158Z,-0.09
2022-12-12T01:38:22.073Z,-0.04
2022-12-12T01:39:24.443Z,0.01
2022-12-12T01:40:30.023Z,0.03
2022-12-12T01:41:32.857Z,-0.05
2022-12-12T01:42:35.737Z,-0.09
2022-12-12T01:43:38.595Z,-0.16
2022-12-12T01:44:48.512Z,-0.13
2022-12-12T01:45:59.810Z,-0.13
2022-12-12T01:47:02.116Z,-0.15
2022-12-12T01:48:05.472Z,-0.22
2022-12-12T01:49:15.641Z,-0.20
2022-12-12T01:50:17.966Z,-0.22
2022-12-12T01:51:22.377Z,-0.27
2022-12-12T01:52:28.689Z,-0.25
2022-12-12T01:53:33.296Z,-0.21
2022-12-12T01:54:40.852Z,-0.18
2022-12-12T01:55:45.698Z,-0.13
2022-12-12T01:56:50.314Z,-0.16
2022-12-12T01:57:54.797Z,-0.15
2022-12-12T01:58:57.829Z,-0.19
2022-12-12T02:00:02.690Z,-0.09
2022-12-12T02:01:07.211Z,-0.17
2022-12-12T02:02:10.508Z,-0.17
2022-12-12T02:03:13.072Z,-0.14
2022-12-12T02:04:16.357Z,-0.07
2022-12-12T02:05:37.815Z,-0.26
2022-12-12T02:06:41.712Z,-0.14
2022-12-12T02:07:44.008Z,-0.09
2022-12-12T02:08:48.749Z,-0.05
2022-12-12T02:09:51.540Z,-0.23
2022-12-12T02:10:53.968Z,-0.15
2022-12-12T02:11:58.223Z,-0.14
2022-12-12T02:13:05.697Z,-0.13
2022-12-12T02:14:08.209Z,-0.13
2022-12-12T02:15:11.144Z,-0.12
2022-12-12T02:16:38.682Z,-0.21
2022-12-12T02:22:05.691Z,-0.18
2022-12-12T02:23:27.002Z,-0.16
2022-12-12T02:25:06.007Z,-0.21
2022-12-12T02:26:08.630Z,-0.26
2022-12-12T02:27:38.184Z,-0.30
2022-12-12T02:29:03.198Z,-0.22
2022-12-12T02:30:09.226Z,-0.21
2022-12-12T02:31:17.191Z,-0.18
2022-12-12T02:32:29.840Z,-0.12
2022-12-12T02:33:48.599Z,-0.12
2022-12-12T02:35:19.388Z,-0.14
2022-12-12T02:36:27.623Z,-0.22
2022-12-12T02:37:39.498Z,-0.31
2022-12-12T02:39:00.590Z,-0.33
2022-12-12T02:40:14.938Z,-0.29
2022-12-12T02:41:24.431Z,-0.24
2022-12-12T02:42:46.737Z,-0.16
2022-12-12T02:44:01.193Z,-0.29
2022-12-12T02:45:11.759Z,-0.24
2022-12-12T02:46:31.465Z,-0.39
2022-12-12T02:52:03.746Z,-0.48
2022-12-12T02:53:07.067Z,-0.32
2022-12-12T02:54:19.940Z,-0.26
2022-12-12T02:55:22.269Z,-0.23
2022-12-12T02:56:48.492Z,-0.24
2022-12-12T02:57:52.193Z,-0.35
2022-12-12T02:58:54.936Z,-0.27
2022-12-12T03:00:01.495Z,-0.33
2022-12-12T03:01:15.071Z,-0.24
2022-12-12T03:02:45.536Z,-0.26
2022-12-12T03:04:16.604Z,-0.23
2022-12-12T03:06:09.847Z,-0.24
2022-12-12T03:07:48.808Z,-0.50
2022-12-12T03:09:19.013Z,-0.36
2022-12-12T03:10:48.814Z,-0.34
2022-12-12T03:12:14.786Z,-0.31
2022-12-12T03:13:31.313Z,-0.30
2022-12-12T03:14:56.427Z,-0.33
2022-12-12T03:16:32.888Z,-0.35
2022-12-12T03:18:25.179Z,-0.32
2022-12-12T03:19:48.086Z,-0.38
2022-12-12T03:21:04.712Z,-0.44
2022-12-12T03:22:34.988Z,-0.44
2022-12-12T03:23:44.740Z,-0.34
2022-12-12T03:24:57.771Z,-0.28
2022-12-12T03:26:11.967Z,-0.30
2022-12-12T03:31:57.515Z,-0.33
2022-12-12T03:33:06.985Z,-0.45
2022-12-12T03:34:19.261Z,-0.35
2022-12-12T03:35:28.930Z,-0.43
2022-12-12T03:36:40.941Z,-0.33
2022-12-12T03:37:56.341Z,-0.31
2022-12-12T03:39:18.740Z,-0.38
2022-12-12T03:40:32.041Z,-0.40
2022-12-12T03:41:40.485Z,-0.30
2022-12-12T03:42:49.185Z,-0.40
2022-12-12T03:44:14.601Z,-0.38
2022-12-12T03:45:29.706Z,-0.41
2022-12-12T03:46:51.850Z,-0.47
2022-12-12T03:47:59.869Z,-0.35
2022-12-12T03:49:13.147Z,-0.36
2022-12-12T03:50:23.483Z,-0.38
2022-12-12T03:51:34.585Z,-0.43
2022-12-12T03:52:55.765Z,-0.38
2022-12-12T03:54:25.341Z,-0.47
2022-12-12T03:55:36.333Z,-0.47
2022-12-12T03:57:04.340Z,-0.46
2022-12-12T03:58:14.303Z,-0.37
2022-12-12T03:59:27.145Z,-0.47
2022-12-12T04:00:32.563Z,-0.42
2022-12-12T04:01:53.304Z,-0.57
2022-12-12T04:03:18.795Z,-0.58
2022-12-12T04:04:36.674Z,-0.45
2022-12-12T04:06:11.317Z,-0.42
2022-12-12T04:11:47.552Z,-0.49
2022-12-12T04:13:13.715Z,-0.52
2022-12-12T04:14:19.642Z,-0.44
2022-12-12T04:15:36.836Z,-0.47
2022-12-12T04:16:45.025Z,-0.46
2022-12-12T04:22:27.041Z,-0.31
2022-12-12T04:24:02.185Z,-0.44
2022-12-12T04:25:16.102Z,-0.47
2022-12-12T04:26:42.432Z,-0.41
2022-12-12T04:32:07.737Z,-0.33
2022-12-12T04:33:15.729Z,-0.35
2022-12-12T04:34:54.090Z,-0.31
2022-12-12T04:35:59.048Z,-0.39
2022-12-12T04:37:04.727Z,-0.40
2022-12-12T04:38:13.364Z,-0.43
2022-12-12T04:39:18.700Z,-0.33
2022-12-12T04:40:29.639Z,-0.33
2022-12-12T04:41:34.886Z,-0.29
2022-12-12T04:42:42.732Z,-0.26
2022-12-12T04:43:48.638Z,-0.26
2022-12-12T04:44:54.341Z,-0.34
2022-12-12T04:46:00.493Z,-0.26
2022-12-12T04:47:07.771Z,-0.30
2022-12-12T04:48:18.430Z,-0.30
2022-12-12T04:49:24.353Z,-0.40
2022-12-12T04:50:31.127Z,-0.30
2022-12-12T04:51:37.714Z,-0.24
2022-12-12T04:52:42.408Z,-0.31
2022-12-12T04:53:51.072Z,-0.26
2022-12-12T04:55:11.244Z,-0.29
2022-12-12T04:56:19.194Z,-0.27
2022-12-12T05:02:07.751Z,-0.40
2022-12-12T05:03:12.012Z,-0.34
2022-12-12T05:04:25.386Z,-0.28
2022-12-12T05:05:37.042Z,-0.24
2022-12-12T05:06:46.415Z,-0.22
2022-12-12T05:08:12.205Z,-0.26
2022-12-12T05:09:17.467Z,-0.20
2022-12-12T05:10:20.688Z,-0.15
2022-12-12T05:11:23.842Z,-0.15
2022-12-12T05:12:29.984Z,-0.23
2022-12-12T05:13:36.490Z,-0.24
2022-12-12T05:14:38.868Z,-0.22
2022-12-12T05:15:44.945Z,-0.18
2022-12-12T05:16:54.659Z,-0.13
2022-12-12T05:18:12.117Z,-0.15
2022-12-12T05:19:14.366Z,-0.11
2022-12-12T05:20:16.841Z,-0.18
2022-12-12T05:21:21.825Z,-0.21
2022-12-12T05:22:24.208Z,-0.18
2022-12-12T05:23:31.508Z,-0.17
2022-12-12T05:24:36.623Z,-0.12
2022-12-12T05:25:38.982Z,-0.09
2022-12-12T05:26:42.017Z,-0.14
2022-12-12T05:27:47.046Z,-0.08
2022-12-12T05:28:49.647Z,-0.17
2022-12-12T05:29:52.004Z,-0.09
2022-12-12T05:30:54.411Z,-0.09
2022-12-12T05:31:56.795Z,-0.12
2022-12-12T05:32:59.330Z,-0.08
2022-12-12T05:34:01.624Z,-0.06
2022-12-12T05:35:04.852Z,-0.05
2022-12-12T05:36:07.644Z,-0.07
2022-12-12T05:37:10.034Z,-0.06
2022-12-12T05:38:12.430Z,-0.09
2022-12-12T05:39:14.938Z,-0.05
2022-12-12T05:40:17.807Z,-0.05
2022-12-12T05:41:20.467Z,-0.04
2022-12-12T05:42:22.760Z,-0.04
2022-12-12T05:43:25.052Z,-0.02
2022-12-12T05:44:27.380Z,-0.03
2022-12-12T05:45:29.680Z,-0.01
2022-12-12T05:46:32.840Z,0.00
2022-12-12T05:47:35.706Z,0.03
2022-12-12T05:48:38.242Z,0.02
2022-12-12T05:49:40.699Z,0.01
2022-12-12T05:50:43.145Z,0.08
2022-12-12T05:51:45.675Z,-0.04
2022-12-12T05:52:48.227Z,-0.04
2022-12-12T05:53:50.655Z,0.00
2022-12-12T05:54:53.399Z,0.03
2022-12-12T05:55:56.163Z,0.00
2022-12-12T05:56:58.783Z,-0.07
2022-12-12T05:58:01.570Z,-0.06
2022-12-12T05:59:03.878Z,-0.05
2022-12-12T06:00:06.884Z,0.03
2022-12-12T06:01:09.714Z,0.01
2022-12-12T06:02:15.014Z,0.07
2022-12-12T06:03:18.667Z,0.06
2022-12-12T06:04:21.179Z,0.03
2022-12-12T06:05:25.987Z,0.04
2022-12-12T06:06:28.387Z,0.04
2022-12-12T06:07:30.682Z,0.10
2022-12-12T06:08:33.545Z,0.03
2022-12-12T06:09:36.718Z,0.12
2022-12-12T06:10:39.209Z,0.01
2022-12-12T06:11:41.918Z,0.00
2022-12-12T06:12:44.253Z,0.03
2022-12-12T06:13:46.590Z,0.08
2022-12-12T06:14:48.925Z,0.04
2022-12-12T06:15:54.125Z,0.02
2022-12-12T06:16:56.650Z,-0.04
2022-12-12T06:17:59.165Z,-0.06
2022-12-12T06:19:02.136Z,-0.03
2022-12-12T06:20:05.029Z,0.00
2022-12-12T06:21:11.207Z,0.08
2022-12-12T06:22:14.103Z,0.05
2022-12-12T06:23:16.384Z,-0.01
2022-12-12T06:24:18.689Z,-0.02
2022-12-12T06:25:21.448Z,-0.01
2022-12-12T06:26:24.047Z,-0.01
2022-12-12T06:27:26.395Z,0.10
2022-12-12T06:28:28.881Z,0.03
2022-12-12T06:29:31.533Z,-0.05
2022-12-12T06:30:37.046Z,-0.08
2022-12-12T06:31:39.410Z,-0.01
2022-12-12T06:32:42.909Z,-0.03
2022-12-12T06:33:45.541Z,0.01
2022-12-12T06:34:48.190Z,-0.06
2022-12-12T06:36:11.796Z,-0.08
2022-12-12T06:42:00.674Z,-0.12
2022-12-12T06:43:03.249Z,0.01
2022-12-12T06:44:06.254Z,0.03
2022-12-12T06:45:08.927Z,-0.06
2022-12-12T06:46:20.235Z,-0.01
2022-12-12T06:47:22.783Z,0.03
2022-12-12T06:48:25.027Z,0.00
2022-12-12T06:49:27.576Z,0.01
2022-12-12T06:50:29.933Z,-0.08
2022-12-12T06:51:33.564Z,-0.04
2022-12-12T06:52:38.183Z,0.03
2022-12-12T06:53:40.470Z,0.07
2022-12-12T06:54:42.837Z,0.01
2022-12-12T06:55:45.206Z,-0.01
2022-12-12T06:56:48.685Z,-0.03
2022-12-12T06:57:51.278Z,-0.12
2022-12-12T06:58:55.650Z,-0.05
2022-12-12T06:59:57.987Z,-0.04
2022-12-12T07:01:00.691Z,-0.02
2022-12-12T07:02:03.278Z,0.03
2022-12-12T07:03:06.085Z,-0.02
2022-12-12T07:04:08.589Z,-0.07
2022-12-12T07:05:11.142Z,-0.06
2022-12-12T07:06:13.954Z,-0.07
2022-12-12T07:07:18.497Z,-0.13
2022-12-12T07:08:21.155Z,-0.16
2022-12-12T07:09:23.670Z,-0.09
2022-12-12T07:10:26.256Z,-0.07
2022-12-12T07:11:31.939Z,-0.07
2022-12-12T07:12:34.515Z,-0.04
2022-12-12T07:13:38.088Z,-0.05
2022-12-12T07:14:40.420Z,-0.11
2022-12-12T07:15:48.025Z,-0.12
2022-12-12T07:16:50.424Z,-0.05
2022-12-12T07:17:54.001Z,-0.06
2022-12-12T07:18:56.538Z,-0.08
2022-12-12T07:19:59.124Z,-0.17
2022-12-12T07:21:05.719Z,-0.12
2022-12-12T07:22:10.398Z,-0.14
2022-12-12T07:23:13.901Z,-0.12
2022-12-12T07:24:16.250Z,-0.05
2022-12-12T07:25:18.747Z,-0.08
2022-12-12T07:26:23.733Z,-0.06
2022-12-12T07:27:26.069Z,-0.03
2022-12-12T07:28:28.520Z,-0.02
2022-12-12T07:29:30.770Z,-0.20
2022-12-12T07:30:35.898Z,-0.17
2022-12-12T07:31:38.404Z,-0.07
2022-12-12T07:32:40.873Z,-0.08
2022-12-12T07:33:44.704Z,-0.07
2022-12-12T07:34:47.166Z,-0.06
2022-12-12T07:35:49.645Z,-0.12
2022-12-12T07:36:52.175Z,-0.06
2022-12-12T07:37:56.642Z,-0.12
2022-12-12T07:38:59.662Z,-0.05
2022-12-12T07:40:02.024Z,-0.05
2022-12-12T07:41:08.783Z,-0.03
2022-12-12T07:42:11.485Z,-0.10
2022-12-12T07:43:13.898Z,-0.13
2022-12-12T07:44:16.975Z,-0.02
2022-12-12T07:45:19.852Z,-0.01
2022-12-12T07:46:24.839Z,0.04
2022-12-12T07:47:27.903Z,0.03
2022-12-12T07:48:32.033Z,0.01
2022-12-12T07:49:34.456Z,0.10
2022-12-12T07:50:39.238Z,0.13
2022-12-12T07:51:45.655Z,0.10
2022-12-12T07:52:51.181Z,0.08
2022-12-12T07:53:53.704Z,0.05
2022-12-12T07:54:56.086Z,0.04
2022-12-12T07:55:58.633Z,0.04
2022-12-12T07:57:01.279Z,0.08
2022-12-12T07:58:03.871Z,0.10
2022-12-12T07:59:06.237Z,0.08
2022-12-12T08:00:13.768Z,0.03
2022-12-12T08:01:25.214Z,0.04
2022-12-12T08:02:27.952Z,-0.01
2022-12-12T08:03:30.370Z,-0.10
2022-12-12T08:04:33.147Z,-0.11
2022-12-12T08:05:35.789Z,-0.09
2022-12-12T08:06:38.289Z,-0.17
2022-12-12T08:07:40.642Z,-0.07
2022-12-12T08:08:44.681Z,-0.08
2022-12-12T08:09:47.208Z,-0.01
2022-12-12T08:10:49.534Z,0.01
2022-12-12T08:11:54.735Z,0.08
2022-12-12T08:12:57.184Z,0.08
2022-12-12T08:13:59.823Z,0.06
2022-12-12T08:15:02.584Z,0.08
2022-12-12T08:16:07.090Z,0.16
2022-12-12T08:17:09.745Z,0.27
2022-12-12T08:18:12.203Z,0.29
2022-12-12T08:19:14.495Z,0.76
2022-12-12T08:20:17.546Z,1.20
2022-12-12T08:21:25.178Z,1.35
2022-12-12T08:22:28.372Z,1.52
2022-12-12T08:23:31.004Z,1.81
2022-12-12T08:24:34.019Z,1.63
2022-12-12T08:25:36.815Z,1.43
2022-12-12T08:26:39.713Z,1.35
2022-12-12T08:27:42.131Z,0.98
2022-12-12T08:28:51.889Z,0.70
2022-12-12T08:29:54.953Z,0.65
2022-12-12T08:30:57.674Z,0.32
2022-12-12T08:32:00.047Z,0.41
2022-12-12T08:33:07.851Z,0.30
2022-12-12T08:34:11.225Z,0.25
2022-12-12T08:35:14.151Z,0.27
2022-12-12T08:36:20.270Z,0.26
2022-12-12T08:37:23.803Z,0.28
2022-12-12T08:38:30.497Z,0.22
2022-12-12T08:39:33.636Z,0.27
2022-12-12T08:40:36.439Z,0.28
2022-12-12T08:41:41.875Z,0.18
2022-12-12T08:42:44.711Z,0.11
2022-12-12T08:43:47.343Z,0.23
2022-12-12T08:44:50.377Z,0.19
2022-12-12T08:46:00.413Z,0.09
2022-12-12T08:47:02.900Z,0.03
2022-12-12T08:48:07.466Z,0.00
2022-12-12T08:49:10.690Z,-0.05
2022-12-12T08:50:13.290Z,-0.12
2022-12-12T08:51:17.007Z,-0.12
2022-12-12T08:52:19.378Z,-0.12
2022-12-12T08:53:21.760Z,-0.19
2022-12-12T08:54:25.588Z,-0.26
2022-12-12T08:55:28.079Z,-0.30
2022-12-12T08:56:30.575Z,-0.26
2022-12-12T08:57:33.684Z,-0.22
2022-12-12T08:58:36.160Z,-0.25
2022-12-12T08:59:38.424Z,-0.27
2022-12-12T09:00:41.567Z,-0.19
2022-12-12T09:01:44.040Z,-0.16
2022-12-12T09:02:46.543Z,-0.13
2022-12-12T09:03:50.910Z,-0.16
2022-12-12T09:04:53.175Z,-0.23
2022-12-12T09:05:55.467Z,-0.16
2022-12-12T09:06:57.936Z,-0.10
2022-12-12T09:08:00.302Z,-0.11
2022-12-12T09:09:03.000Z,-0.17
2022-12-12T09:10:06.523Z,-0.18
2022-12-12T09:11:09.819Z,-0.14
2022-12-12T09:12:12.146Z,-0.25
2022-12-12T09:13:14.390Z,-0.18
2022-12-12T09:14:16.860Z,-0.15
2022-12-12T09:15:19.263Z,-0.24
2022-12-12T09:16:26.678Z,-0.18
2022-12-12T09:17:29.420Z,-0.14
2022-12-12T09:18:34.533Z,-0.17
2022-12-12T09:19:36.977Z,-0.27
2022-12-12T09:20:39.448Z,-0.25
2022-12-12T09:21:41.881Z,-0.14
2022-12-12T09:22:44.737Z,-0.27
2022-12-12T09:23:47.038Z,-0.18
2022-12-12T09:24:49.465Z,-0.19
2022-12-12T09:25:52.822Z,-0.12
2022-12-12T09:26:55.174Z,-0.09
2022-12-12T09:27:57.580Z,-0.01
2022-12-12T09:29:00.508Z,0.00
2022-12-12T09:30:03.483Z,0.03
2022-12-12T09:31:11.192Z,0.08
2022-12-12T09:32:15.317Z,0.01
2022-12-12T09:33:19.855Z,-0.04
2022-12-12T09:34:22.094Z,-0.05
2022-12-12T09:35:24.537Z,0.04
2022-12-12T09:36:26.860Z,0.09
2022-12-12T09:37:29.654Z,0.05
2022-12-12T09:38:32.678Z,-0.04
2022-12-12T09:39:35.185Z,0.09
2022-12-12T09:40:53.904Z,0.13
2022-12-12T09:41:56.709Z,0.18
2022-12-12T09:42:59.435Z,0.12
2022-12-12T09:44:12.580Z,0.17
2022-12-12T09:45:15.741Z,0.19
2022-12-12T09:46:30.264Z,0.19
2022-12-12T09:47:32.813Z,0.12
2022-12-12T09:48:47.381Z,0.12
2022-12-12T09:49:53.996Z,0.08
2022-12-12T09:51:00.158Z,0.03
2022-12-12T09:52:03.840Z,-0.04
2022-12-12T09:53:12.558Z,0.04
2022-12-12T09:54:20.848Z,0.00
2022-12-12T09:55:35.829Z,0.04
2022-12-12T09:56:48.045Z,0.01
2022-12-12T09:58:02.974Z,-0.14
2022-12-12T09:59:23.633Z,-0.04
2022-12-12T10:00:27.553Z,0.06
2022-12-12T10:01:51.836Z,-0.05
2022-12-12T10:02:54.194Z,-0.06
2022-12-12T10:04:11.758Z,-0.05
2022-12-12T10:05:25.834Z,0.03
2022-12-12T10:06:41.407Z,-0.05
2022-12-12T10:12:23.677Z,-0.16
2022-12-12T10:13:28.071Z,-0.13
2022-12-12T10:14:38.850Z,-0.03
2022-12-12T10:15:46.840Z,0.01
2022-12-12T10:16:55.706Z,0.03
2022-12-12T10:18:02.579Z,0.07
2022-12-12T10:19:34.770Z,0.09
2022-12-12T10:20:52.671Z,-0.05
2022-12-12T10:22:02.505Z,-0.14
2022-12-12T10:23:07.657Z,-0.12
2022-12-12T10:24:33.371Z,-0.10
2022-12-12T10:25:47.653Z,-0.13
2022-12-12T10:31:29.715Z,-0.13
2022-12-12T10:32:53.173Z,-0.06
2022-12-12T10:33:55.585Z,-0.13
2022-12-12T10:35:35.234Z,-0.02
2022-12-12T10:37:06.764Z,0.08
2022-12-12T10:38:46.351Z,-0.10
2022-12-12T10:39:58.626Z,-0.03
2022-12-12T10:41:16.166Z,-0.02
2022-12-12T10:42:33.342Z,0.05
2022-12-12T10:43:46.345Z,0.06
2022-12-12T10:44:54.974Z,0.02
2022-12-12T10:46:12.621Z,0.02
2022-12-12T10:47:15.467Z,0.07
2022-12-12T10:48:18.095Z,0.07
2022-12-12T10:49:24.253Z,-0.01
2022-12-12T10:50:42.157Z,0.08
2022-12-12T10:51:47.979Z,0.08
2022-12-12T10:52:50.616Z,0.13
2022-12-12T10:53:53.357Z,0.08
2022-12-12T10:54:59.037Z,0.03
2022-12-12T10:56:08.206Z,0.01
2022-12-12T10:57:20.529Z,-0.01
2022-12-12T10:58:28.419Z,0.01
2022-12-12T10:59:31.443Z,0.05
2022-12-12T11:00:48.765Z,0.08
2022-12-12T11:02:14.509Z,0.05
2022-12-12T11:03:26.881Z,-0.01
2022-12-12T11:04:31.981Z,0.00
2022-12-12T11:05:36.767Z,0.01
2022-12-12T11:06:46.995Z,0.01
2022-12-12T11:08:00.583Z,0.04
2022-12-12T11:09:19.502Z,0.13
2022-12-12T11:10:48.151Z,0.10
2022-12-12T11:12:02.645Z,-0.02
2022-12-12T11:13:11.751Z,0.01
2022-12-12T11:14:31.408Z,0.09
2022-12-12T11:15:39.827Z,0.09
2022-12-12T11:16:44.418Z,0.09
2022-12-12T11:17:46.703Z,-0.02
2022-12-12T11:19:18.928Z,0.03
2022-12-12T11:20:21.676Z,0.09
2022-12-12T11:21:24.664Z,0.12
2022-12-12T11:22:28.380Z,0.12
2022-12-12T11:23:32.845Z,0.06
2022-12-12T11:24:39.233Z,0.08
2022-12-12T11:25:41.967Z,0.11
2022-12-12T11:26:59.674Z,0.09
2022-12-12T11:28:06.944Z,0.08
2022-12-12T11:29:25.039Z,0.15
2022-12-12T11:30:27.309Z,0.13
2022-12-12T11:31:34.049Z,0.02
2022-12-12T11:32:42.731Z,0.05
2022-12-12T11:33:48.579Z,0.00
2022-12-12T11:34:54.847Z,0.08
2022-12-12T11:35:58.180Z,0.08
2022-12-12T11:37:00.897Z,0.06
2022-12-12T11:38:06.987Z,0.00
2022-12-12T11:39:23.541Z,0.08
2022-12-12T11:40:32.368Z,0.06
2022-12-12T11:42:17.722Z,0.09
2022-12-12T11:43:27.516Z,0.05
2022-12-12T11:44:35.653Z,-0.09
2022-12-12T11:45:38.037Z,-0.03
2022-12-12T11:46:40.470Z,-0.01
2022-12-12T11:47:45.522Z,-0.02
2022-12-12T11:48:54.408Z,-0.05
2022-12-12T11:50:03.806Z,-0.03
2022-12-12T11:51:09.972Z,-0.06
2022-12-12T11:52:22.090Z,-0.08
2022-12-12T11:53:24.596Z,-0.07
2022-12-12T11:54:31.848Z,0.00
2022-12-12T11:55:53.775Z,-0.05
2022-12-12T12:01:37.375Z,-0.12
2022-12-12T12:03:04.413Z,-0.16
2022-12-12T12:04:16.968Z,-0.18
2022-12-12T12:05:33.156Z,-0.15
2022-12-12T12:07:16.863Z,-0.19
2022-12-12T12:09:13.746Z,-0.25
2022-12-12T12:10:44.137Z,-0.25
2022-12-12T12:12:11.895Z,-0.20
2022-12-12T12:13:46.424Z,-0.17
2022-12-12T12:15:08.644Z,-0.30
2022-12-12T12:16:23.749Z,-0.23
2022-12-12T12:17:55.522Z,-0.20
2022-12-12T12:19:04.214Z,-0.21
2022-12-12T12:20:56.417Z,-0.29
2022-12-12T12:22:31.306Z,-0.25
2022-12-12T12:23:50.591Z,-0.24
2022-12-12T12:25:19.392Z,-0.27
2022-12-12T12:26:40.011Z,-0.34
2022-12-12T12:28:00.527Z,-0.29
2022-12-12T12:29:21.246Z,-0.37
2022-12-12T12:30:26.004Z,-0.44
2022-12-12T12:31:43.924Z,-0.41
2022-12-12T12:33:17.068Z,-0.40
2022-12-12T12:35:08.226Z,-0.36
2022-12-12T12:36:39.830Z,-0.42
2022-12-12T12:42:21.659Z,-0.33
2022-12-12T12:43:56.086Z,-0.45
2022-12-12T12:45:37.683Z,-0.30
2022-12-12T12:47:01.353Z,-0.31
2022-12-12T12:48:10.588Z,-0.35
2022-12-12T12:49:42.373Z,-0.36
2022-12-12T12:50:51.295Z,-0.32
2022-12-12T12:52:27.008Z,-0.30
2022-12-12T12:53:38.770Z,-0.29
2022-12-12T12:54:47.334Z,-0.26
2022-12-12T12:55:55.521Z,-0.32
2022-12-12T12:57:10.727Z,-0.28
2022-12-12T12:58:20.337Z,-0.25
2022-12-12T12:59:29.116Z,-0.30
2022-12-12T13:00:32.128Z,-0.30
2022-12-12T13:01:47.426Z,-0.29
2022-12-12T13:02:57.500Z,-0.32
2022-12-12T13:04:15.153Z,-0.30
2022-12-12T13:05:45.252Z,-0.36
2022-12-12T13:07:02.420Z,-0.39
2022-12-12T13:08:29.862Z,-0.47
2022-12-12T13:09:52.145Z,-0.36
2022-12-12T13:11:01.940Z,-0.33
2022-12-12T13:12:28.936Z,-0.38
2022-12-12T13:13:34.872Z,-0.37
2022-12-12T13:14:41.044Z,-0.41
2022-12-12T13:16:12.381Z,-0.43
2022-12-12T13:17:25.673Z,-0.41
2022-12-12T13:18:44.457Z,-0.49
2022-12-12T13:19:53.696Z,-0.44
2022-12-12T13:21:12.860Z,-0.48
2022-12-12T13:22:27.463Z,-0.41
2022-12-12T13:23:59.075Z,-0.42
2022-12-12T13:25:40.600Z,-0.47
2022-12-12T13:26:57.698Z,-0.45
2022-12-12T13:28:03.662Z,-0.41
2022-12-12T13:29:17.748Z,-0.35
2022-12-12T13:30:25.181Z,-0.34
2022-12-12T13:32:09.558Z,-0.33
2022-12-12T13:33:39.345Z,-0.38
2022-12-12T13:34:48.115Z,-0.41
2022-12-12T13:35:54.750Z,-0.41
2022-12-12T13:36:59.406Z,-0.42
2022-12-12T13:38:02.941Z,-0.44
2022-12-12T13:39:07.423Z,-0.43
2022-12-12T13:40:23.566Z,-0.45
2022-12-12T13:41:28.568Z,-0.44
2022-12-12T13:43:10.134Z,-0.42
2022-12-12T13:44:33.912Z,-0.44
2022-12-12T13:45:38.531Z,-0.40
2022-12-12T13:46:40.909Z,-0.40
2022-12-12T13:47:51.044Z,-0.40
2022-12-12T13:49:17.028Z,-0.41
2022-12-12T13:50:22.806Z,-0.45
2022-12-12T13:51:28.977Z,-0.38
2022-12-12T13:52:38.105Z,-0.40
2022-12-12T13:53:42.866Z,-0.39
2022-12-12T13:54:46.862Z,-0.38
2022-12-12T13:55:49.199Z,-0.36
2022-12-12T13:56:57.410Z,-0.40
2022-12-12T13:58:00.191Z,-0.36
2022-12-12T13:59:04.772Z,-0.37
2022-12-12T14:00:16.854Z,-0.33
2022-12-12T14:01:40.833Z,-0.36
2022-12-12T14:02:46.020Z,-0.38
2022-12-12T14:03:48.399Z,-0.32
2022-12-12T14:05:14.146Z,-0.35
2022-12-12T14:06:19.133Z,-0.41
2022-12-12T14:07:27.754Z,-0.38
2022-12-12T14:08:49.906Z,-0.34
2022-12-12T14:09:57.848Z,-0.41
2022-12-12T14:11:08.320Z,-0.36
2022-12-12T14:12:20.266Z,-0.36
2022-12-12T14:13:22.574Z,-0.42
2022-12-12T14:14:25.209Z,-0.31
2022-12-12T14:15:34.398Z,-0.31
2022-12-12T14:16:37.456Z,-0.31
2022-12-12T14:17:42.684Z,-0.33
2022-12-12T14:18:51.636Z,-0.34
2022-12-12T14:19:56.598Z,-0.37
2022-12-12T14:21:03.694Z,-0.41
2022-12-12T14:22:06.822Z,-0.42
2022-12-12T14:23:21.049Z,-0.38
2022-12-12T14:24:32.559Z,-0.45
2022-12-12T14:25:38.068Z,-0.34
2022-12-12T14:26:40.900Z,-0.41
2022-12-12T14:27:52.066Z,-0.43
2022-12-12T14:29:17.886Z,-0.46
2022-12-12T14:30:40.351Z,-0.50
2022-12-12T14:32:12.956Z,-0.43
2022-12-12T14:34:02.087Z,-0.52
2022-12-12T14:35:35.401Z,-0.50
2022-12-12T14:37:15.941Z,-0.43
2022-12-12T14:38:34.264Z,-0.54
2022-12-12T14:39:48.994Z,-0.50
2022-12-12T14:41:02.096Z,-0.60
2022-12-12T14:42:07.870Z,-0.53
2022-12-12T14:43:40.770Z,-0.56
2022-12-12T14:44:50.519Z,-0.62
2022-12-12T14:46:00.977Z,-0.58
2022-12-12T14:47:08.693Z,-0.57
2022-12-12T14:48:35.009Z,-0.59
2022-12-12T14:49:37.492Z,-0.61
2022-12-12T14:50:43.674Z,-0.64
2022-12-12T14:51:50.854Z,-0.67
2022-12-12T14:52:59.173Z,-0.76
2022-12-12T14:54:03.123Z,-0.75
2022-12-12T14:55:06.233Z,-0.73
2022-12-12T14:56:17.859Z,-0.78
2022-12-12T14:57:23.689Z,-0.75
2022-12-12T14:58:35.222Z,-0.70
2022-12-12T14:59:40.180Z,-0.76
2022-12-12T15:00:52.175Z,-0.72
2022-12-12T15:02:01.360Z,-0.73
2022-12-12T15:03:04.514Z,-0.74
2022-12-12T15:04:14.467Z,-0.70
2022-12-12T15:05:17.001Z,-0.78
2022-12-12T15:06:27.784Z,-0.76
2022-12-12T15:07:32.785Z,-0.81
2022-12-12T15:08:35.481Z,-0.78
2022-12-12T15:09:39.861Z,-0.74
2022-12-12T15:10:42.216Z,-0.74
2022-12-12T15:11:49.605Z,-0.78
2022-12-12T15:12:51.882Z,-0.80
2022-12-12T15:13:59.918Z,-0.85
2022-12-12T15:15:02.415Z,-0.85
2022-12-12T15:16:05.395Z,-0.82
2022-12-12T15:17:15.707Z,-0.86
2022-12-12T15:18:21.173Z,-0.83
2022-12-12T15:19:34.669Z,-0.83
2022-12-12T15:20:37.561Z,-0.85
2022-12-12T15:21:39.944Z,-0.81
2022-12-12T15:22:52.660Z,-0.80
2022-12-12T15:23:55.141Z,-0.82
2022-12-12T15:25:01.525Z,-0.82
2022-12-12T15:26:05.304Z,-0.85
2022-12-12T15:27:08.167Z,-0.81
2022-12-12T15:28:19.166Z,-0.84
2022-12-12T15:29:27.795Z,-0.77
2022-12-12T15:30:40.158Z,-0.81
2022-12-12T15:31:47.801Z,-0.82
2022-12-12T15:32:50.679Z,-0.92
2022-12-12T15:33:53.236Z,-0.92
2022-12-12T15:35:08.014Z,-0.92
2022-12-12T15:36:25.543Z,-0.85
2022-12-12T15:37:36.107Z,-0.85
2022-12-12T15:38:42.491Z,-0.90
2022-12-12T15:39:45.263Z,-0.84
2022-12-12T15:40:59.027Z,-0.85
2022-12-12T15:42:01.567Z,-0.89
2022-12-12T15:43:07.285Z,-0.87
2022-12-12T15:44:28.282Z,-0.84
2022-12-12T15:45:34.813Z,-0.89
2022-12-12T15:46:37.457Z,-0.87
2022-12-12T15:47:39.852Z,-0.87
2022-12-12T15:48:45.541Z,-0.88
2022-12-12T15:49:47.951Z,-0.88
2022-12-12T15:50:57.424Z,-0.90
2022-12-12T15:52:31.020Z,-0.89
2022-12-12T15:53:35.479Z,-0.84
2022-12-12T15:54:38.096Z,-0.90
2022-12-12T15:55:51.483Z,-0.84